createdAt,value
2019-04-16T00:09:14.969Z,96.60
2019-04-16T00:12:18.996Z,96.80
2019-04-16T00:15:13.550Z,97.00
2019-04-16T00:17:54.718Z,97.10
2019-04-16T00:20:46.418Z,97.40
2019-04-16T00:23:54.447Z,97.80
2019-04-16T00:27:05.047Z,98.20
2019-04-16T00:29:40.011Z,98.60
2019-04-16T00:32:42.685Z,98.60
2019-04-16T00:35:46.601Z,98.90
2019-04-16T00:38:58.959Z,99.60
2019-04-16T00:41:49.047Z,99.80
2019-04-16T00:44:21.899Z,99.90
2019-04-16T00:47:34.167Z,99.90
2019-04-16T00:50:11.563Z,99.90
2019-04-16T00:53:12.282Z,99.90
2019-04-16T00:56:17.616Z,99.90
2019-04-16T00:59:06.127Z,99.90
2019-04-16T01:02:05.777Z,99.90
2019-04-16T01:05:06.248Z,99.90
2019-04-16T01:07:57.433Z,99.90
2019-04-16T01:10:39.001Z,99.90
2019-04-16T01:13:29.630Z,99.90
2019-04-16T01:16:30.312Z,99.90
2019-04-16T01:19:41.020Z,99.90
2019-04-16T01:22:40.398Z,99.90
2019-04-16T01:28:43.446Z,99.90
2019-04-16T01:31:51.436Z,99.90
2019-04-16T01:34:51.562Z,99.90
2019-04-16T01:37:49.949Z,99.90
2019-04-16T01:40:58.547Z,99.90
2019-04-16T01:43:57.041Z,99.90
2019-04-16T01:46:57.288Z,99.90
2019-04-16T01:49:51.593Z,99.90
2019-04-16T01:52:36.797Z,99.90
2019-04-16T01:55:28.157Z,99.90
2019-04-16T01:58:26.162Z,99.90
2019-04-16T02:00:51.682Z,99.90
2019-04-16T02:03:39.786Z,99.90
2019-04-16T02:06:25.910Z,99.90
2019-04-16T02:09:03.259Z,99.90
2019-04-16T02:11:42.950Z,99.90
2019-04-16T02:14:28.282Z,99.90
2019-04-16T02:17:26.607Z,99.90
2019-04-16T02:20:12.573Z,99.90
2019-04-16T02:23:07.263Z,99.90
2019-04-16T02:25:51.355Z,99.90
2019-04-16T02:28:45.980Z,99.90
2019-04-16T02:31:52.588Z,99.90
2019-04-16T02:35:26.416Z,99.90
2019-04-16T02:37:48.299Z,99.90
2019-04-16T02:40:33.943Z,99.90
2019-04-16T02:43:12.820Z,99.90
2019-04-16T02:46:14.684Z,99.90
2019-04-16T02:49:04.066Z,99.90
2019-04-16T02:52:16.509Z,99.90
2019-04-16T02:55:19.012Z,99.90
2019-04-16T02:58:16.418Z,99.90
2019-04-16T03:01:23.487Z,99.90
2019-04-16T03:04:27.064Z,99.90
2019-04-16T03:07:09.333Z,99.90
2019-04-16T03:10:01.107Z,99.90
2019-04-16T03:12:36.158Z,99.90
2019-04-16T03:15:33.695Z,99.90
2019-04-16T03:18:25.595Z,99.90
2019-04-16T03:21:06.747Z,99.90
2019-04-16T03:23:58.627Z,99.90
2019-04-16T03:26:44.154Z,99.90
2019-04-16T03:29:38.832Z,99.90
2019-04-16T03:32:36.208Z,99.90
2019-04-16T03:35:51.058Z,99.90
2019-04-16T03:38:37.307Z,99.90
2019-04-16T03:41:24.924Z,99.90
2019-04-16T03:44:33.573Z,99.90
2019-04-16T03:47:18.818Z,99.90
2019-04-16T03:50:18.528Z,99.90
2019-04-16T03:53:06.612Z,99.90
2019-04-16T03:56:03.721Z,99.90
2019-04-16T03:58:43.658Z,99.90
2019-04-16T04:02:05.174Z,99.90
2019-04-16T04:04:52.642Z,99.90
2019-04-16T04:13:42.086Z,99.90
2019-04-16T04:20:20.613Z,99.90
2019-04-16T04:23:17.812Z,99.90
2019-04-16T04:26:41.420Z,99.90
2019-04-16T04:29:46.295Z,99.90
2019-04-16T04:32:25.951Z,99.90
2019-04-16T04:35:45.012Z,99.90
2019-04-16T04:38:38.260Z,99.90
2019-04-16T04:41:23.066Z,99.90
2019-04-16T04:48:02.899Z,99.90
2019-04-16T04:51:17.003Z,99.90
2019-04-16T04:54:22.044Z,99.90
2019-04-16T04:57:10.058Z,99.90
2019-04-16T05:00:37.432Z,99.90
2019-04-16T05:03:55.271Z,99.90
2019-04-16T05:06:58.583Z,99.90
2019-04-16T05:10:00.417Z,99.90
2019-04-16T05:13:10.387Z,99.90
2019-04-16T05:40:09.923Z,99.90
2019-04-16T05:43:00.384Z,99.90
2019-04-16T05:46:15.926Z,99.90
2019-04-16T05:52:19.802Z,99.90
2019-04-16T06:06:28.561Z,99.90
2019-04-16T06:09:25.734Z,97.30
2019-04-16T06:12:54.134Z,95.10
2019-04-16T06:16:11.843Z,94.80
2019-04-16T06:20:07.287Z,92.80
2019-04-16T06:23:34.298Z,90.70
2019-04-16T06:26:55.821Z,90.30
2019-04-16T06:30:11.426Z,88.70
2019-04-16T06:37:26.777Z,84.20
2019-04-16T06:40:50.475Z,81.70
2019-04-16T06:44:05.275Z,83.30
2019-04-16T06:47:52.179Z,81.50
2019-04-16T06:51:02.560Z,78.40
2019-04-16T06:54:31.615Z,77.70
2019-04-16T07:00:44.835Z,73.50
2019-04-16T07:03:48.509Z,73.30
2019-04-16T07:14:19.011Z,68.30
2019-04-16T07:17:20.976Z,65.70
2019-04-16T07:20:32.481Z,66.60
2019-04-16T07:24:04.453Z,68.10
2019-04-16T07:27:07.704Z,68.40
2019-04-16T07:30:14.428Z,68.10
2019-04-16T07:34:28.143Z,65.40
2019-04-16T07:37:38.702Z,63.20
2019-04-16T07:41:34.254Z,60.70
2019-04-16T07:45:05.713Z,61.00
2019-04-16T07:56:01.244Z,61.90
2019-04-16T07:59:25.431Z,61.10
2019-04-16T08:03:11.514Z,60.00
2019-04-16T08:06:49.499Z,58.50
2019-04-16T08:14:10.254Z,59.50
2019-04-16T08:24:42.940Z,54.90
2019-04-16T08:27:34.751Z,56.50
2019-04-16T08:31:12.221Z,59.10
2019-04-16T08:34:20.947Z,59.00
2019-04-16T08:41:21.098Z,55.40
2019-04-16T08:44:54.705Z,54.40
2019-04-16T08:48:37.186Z,53.70
2019-04-16T08:55:29.754Z,53.50
2019-04-16T09:02:01.538Z,55.20
2019-04-16T09:06:04.394Z,55.50
2019-04-16T09:09:47.580Z,55.80
2019-04-16T09:12:40.757Z,54.20
2019-04-16T09:15:48.479Z,52.60
2019-04-16T09:19:09.435Z,54.10
2019-04-16T09:26:57.896Z,54.20
2019-04-16T09:30:10.762Z,52.40
2019-04-16T09:33:51.192Z,52.70
2019-04-16T09:37:16.394Z,50.30
2019-04-16T09:41:08.733Z,51.10
2019-04-16T09:44:18.598Z,50.70
2019-04-16T09:47:36.133Z,51.30
2019-04-16T09:55:07.968Z,53.00
2019-04-16T09:58:42.543Z,54.40
2019-04-16T10:02:06.864Z,53.10
2019-04-16T10:08:56.668Z,54.30
2019-04-16T10:12:07.688Z,53.30
2019-04-16T10:18:35.997Z,55.40
2019-04-16T10:22:14.205Z,55.10
2019-04-16T10:25:37.002Z,55.60
2019-04-16T10:29:21.863Z,55.50
2019-04-16T10:37:02.619Z,56.90
2019-04-16T10:40:36.284Z,55.60
2019-04-16T10:51:26.414Z,54.90
2019-04-16T10:54:38.260Z,56.90
2019-04-16T10:55:03.109Z,55.50
2019-04-16T11:06:20.782Z,55.40
2019-04-16T11:10:11.666Z,55.80
2019-04-16T11:14:18.361Z,54.20
2019-04-16T11:21:18.649Z,55.40
2019-04-16T11:35:29.688Z,57.00
2019-04-16T11:38:38.727Z,57.10
2019-04-16T11:42:36.813Z,56.50
2019-04-16T11:50:22.424Z,56.50
2019-04-16T11:57:41.641Z,56.40
2019-04-16T12:01:23.262Z,54.50
2019-04-16T12:05:12.656Z,55.60
2019-04-16T12:12:45.184Z,54.40
2019-04-16T12:16:54.170Z,55.40
2019-04-16T12:20:05.055Z,54.60
2019-04-16T12:23:49.972Z,55.40
2019-04-16T12:27:49.973Z,55.50
2019-04-16T12:31:23.381Z,56.10
2019-04-16T12:42:47.913Z,49.00
2019-04-16T12:46:32.560Z,49.00
2019-04-16T12:49:53.961Z,47.20
2019-04-16T12:53:14.830Z,46.90
2019-04-16T12:57:02.839Z,48.30
2019-04-16T13:00:31.679Z,47.50
2019-04-16T13:19:59.408Z,48.50
2019-04-16T13:23:16.920Z,48.60
2019-04-16T13:26:55.778Z,48.20
2019-04-16T13:34:19.410Z,47.80
2019-04-16T13:41:09.663Z,46.80
2019-04-16T13:48:42.392Z,47.50
2019-04-16T14:00:39.287Z,47.70
2019-04-16T14:08:11.869Z,47.50
2019-04-16T14:11:58.690Z,46.90
2019-04-16T14:15:31.205Z,46.70
2019-04-16T14:47:38.057Z,47.70
2019-04-16T14:51:22.296Z,48.80
2019-04-16T15:02:55.138Z,52.50
2019-04-16T15:10:51.720Z,53.10
2019-04-16T15:14:47.805Z,53.20
2019-04-16T15:21:28.693Z,53.40
2019-04-16T15:29:11.120Z,54.10
2019-04-16T15:32:48.647Z,54.00
2019-04-16T15:36:24.745Z,54.40
2019-04-16T15:40:07.509Z,54.50
2019-04-16T15:43:27.548Z,53.30
2019-04-16T15:47:00.061Z,53.50
2019-04-16T15:50:35.695Z,54.40
2019-04-16T16:03:42.533Z,56.40
2019-04-16T16:07:32.449Z,57.20
2019-04-16T16:11:16.573Z,58.00
2019-04-16T16:14:38.726Z,58.20
2019-04-16T16:18:06.000Z,58.70
2019-04-16T16:21:19.120Z,59.40
2019-04-16T16:28:09.908Z,59.80
2019-04-16T16:31:35.954Z,59.90
2019-04-16T16:34:50.028Z,60.10
2019-04-16T16:38:39.801Z,60.10
2019-04-16T16:42:20.919Z,60.10
2019-04-16T16:54:08.228Z,61.20
2019-04-16T17:01:20.101Z,61.70
2019-04-16T17:19:01.620Z,63.30
2019-04-16T17:22:17.367Z,65.00
2019-04-16T17:25:50.267Z,72.40
2019-04-16T17:32:57.506Z,69.60
2019-04-16T17:36:19.573Z,76.50
2019-04-16T17:39:48.347Z,82.70
2019-04-16T17:58:53.383Z,95.40
2019-04-16T18:02:29.234Z,97.50
2019-04-16T18:06:42.905Z,98.50
2019-04-16T18:17:14.816Z,99.90
2019-04-16T18:20:32.324Z,99.90
2019-04-16T18:24:21.381Z,99.90
2019-04-16T18:27:34.846Z,99.90
2019-04-16T18:34:43.432Z,99.90
2019-04-16T18:38:34.924Z,99.90
2019-04-16T18:42:36.714Z,99.90
2019-04-16T18:46:15.041Z,99.90
2019-04-16T18:49:42.754Z,99.90
2019-04-16T18:52:55.930Z,99.90
2019-04-16T18:56:28.213Z,99.90
2019-04-16T19:00:21.760Z,99.90
2019-04-16T19:03:36.846Z,99.90
2019-04-16T19:06:52.531Z,99.90
2019-04-16T19:10:11.598Z,99.90
2019-04-16T19:13:51.973Z,99.90
2019-04-16T19:20:58.930Z,99.90
2019-04-16T19:28:20.142Z,99.90
2019-04-16T19:35:28.956Z,99.90
2019-04-16T19:38:57.215Z,99.90
2019-04-16T19:43:02.520Z,99.90
2019-04-16T19:46:52.656Z,99.90
2019-04-16T20:30:42.917Z,99.90
2019-04-16T20:34:01.834Z,99.90
2019-04-16T20:37:17.016Z,99.90
2019-04-16T20:40:36.024Z,99.90
2019-04-16T20:44:03.097Z,99.90
2019-04-16T20:47:08.719Z,99.90
2019-04-16T20:50:31.991Z,99.90
2019-04-16T20:54:13.981Z,99.90
2019-04-16T20:57:49.789Z,99.90
2019-04-16T21:00:49.134Z,99.90
2019-04-16T21:04:14.620Z,99.90
2019-04-16T21:10:45.471Z,99.90
2019-04-16T21:20:19.366Z,99.90
2019-04-16T21:23:16.065Z,99.90
2019-04-16T21:26:16.543Z,99.90
2019-04-16T21:29:50.415Z,99.90
2019-04-16T21:33:13.473Z,99.90
2019-04-16T21:36:36.910Z,99.90
2019-04-16T21:40:01.437Z,99.90
2019-04-16T21:43:12.935Z,99.90
2019-04-16T21:46:25.342Z,99.90
2019-04-16T21:49:39.149Z,99.90
2019-04-16T21:52:42.686Z,99.90
2019-04-16T21:55:32.812Z,99.90
2019-04-16T21:58:26.888Z,99.90
2019-04-16T22:01:51.440Z,99.90
2019-04-16T22:05:04.058Z,99.90
2019-04-16T22:07:58.255Z,99.90
2019-04-16T22:11:18.255Z,99.90
2019-04-16T22:18:12.816Z,99.90
2019-04-16T22:21:33.495Z,99.90
2019-04-16T22:24:37.187Z,99.90
2019-04-16T22:28:01.798Z,99.90
2019-04-16T22:31:23.701Z,99.90
2019-04-16T22:33:57.627Z,99.90
2019-04-16T22:37:09.825Z,99.90
2019-04-16T22:40:38.792Z,99.90
2019-04-16T22:43:50.106Z,99.90
2019-04-16T22:46:54.653Z,99.90
2019-04-16T22:50:16.256Z,99.90
2019-04-16T22:52:57.167Z,99.90
2019-04-16T22:56:00.633Z,99.90
2019-04-16T22:59:06.618Z,99.90
2019-04-16T23:02:32.028Z,99.90
2019-04-16T23:05:45.378Z,99.90
2019-04-16T23:09:01.750Z,99.90
2019-04-16T23:12:13.558Z,99.90
2019-04-16T23:15:19.508Z,99.90
2019-04-16T23:18:09.383Z,99.90
2019-04-16T23:21:11.583Z,99.90
2019-04-16T23:24:20.375Z,99.90
2019-04-16T23:27:20.470Z,99.90
2019-04-16T23:30:19.817Z,99.90
2019-04-16T23:33:02.019Z,99.90
2019-04-16T23:35:52.142Z,99.90
2019-04-16T23:39:06.912Z,99.90
2019-04-16T23:42:12.320Z,99.90
2019-04-16T23:56:17.715Z,99.90
2019-04-16T23:59:26.262Z,99.90
